createdAt,value
2018-04-21T00:02:00.989Z,92.37
2018-04-21T00:04:05.319Z,91.40
2018-04-21T00:06:08.940Z,76.30
2018-04-21T00:08:13.263Z,79.87
2018-04-21T00:10:16.972Z,86.57
2018-04-21T00:12:21.332Z,67.77
2018-04-21T00:14:25.759Z,89.77
2018-04-21T00:16:29.632Z,68.37
2018-04-21T00:18:33.287Z,75.50
2018-04-21T00:20:36.856Z,84.57
2018-04-21T00:22:40.457Z,76.00
2018-04-21T00:24:44.071Z,67.87
2018-04-21T00:26:47.628Z,68.57
2018-04-21T00:28:52.095Z,84.67
2018-04-21T00:30:55.653Z,69.83
2018-04-21T00:32:59.263Z,68.33
2018-04-21T00:35:02.897Z,67.40
2018-04-21T00:37:06.450Z,70.77
2018-04-21T00:39:10.084Z,67.50
2018-04-21T00:41:13.637Z,69.13
2018-04-21T00:43:17.346Z,68.70
2018-04-21T00:45:20.947Z,75.60
2018-04-21T00:47:24.562Z,74.77
2018-04-21T00:49:28.216Z,61.83
2018-04-21T00:51:32.534Z,76.27
2018-04-21T00:53:48.669Z,71.33
2018-04-21T00:55:52.212Z,77.67
2018-04-21T00:57:56.573Z,78.00
2018-04-21T01:00:00.231Z,76.67
2018-04-21T01:02:04.651Z,69.60
2018-04-21T01:04:08.687Z,62.03
2018-04-21T01:06:12.372Z,68.70
2018-04-21T01:08:15.916Z,73.03
2018-04-21T01:10:19.566Z,76.17
2018-04-21T01:12:23.126Z,70.13
2018-04-21T01:14:27.474Z,75.83
2018-04-21T01:16:31.058Z,76.70
2018-04-21T01:18:35.352Z,75.47
2018-04-21T01:20:39.128Z,68.57
2018-04-21T01:22:42.662Z,73.17
2018-04-21T01:24:46.994Z,65.87
2018-04-21T01:26:50.647Z,69.70
2018-04-21T01:28:54.204Z,75.67
2018-04-21T01:30:57.802Z,68.50
2018-04-21T01:33:01.380Z,70.80
2018-04-21T01:35:06.471Z,73.07
2018-04-21T01:37:10.463Z,74.17
2018-04-21T01:39:14.016Z,68.53
2018-04-21T01:41:17.616Z,73.97
2018-04-21T01:43:21.324Z,72.70
2018-04-21T01:45:32.288Z,76.80
2018-04-21T01:47:42.248Z,68.93
2018-04-21T01:49:45.863Z,67.63
2018-04-21T01:51:49.471Z,73.73
2018-04-21T01:53:53.083Z,73.37
2018-04-21T01:55:57.483Z,76.13
2018-04-21T01:58:01.031Z,68.87
2018-04-21T02:00:05.940Z,70.05
2018-04-21T02:02:10.269Z,70.17
2018-04-21T02:04:13.877Z,74.53
2018-04-21T02:06:17.536Z,70.23
2018-04-21T02:08:21.155Z,69.37
2018-04-21T02:10:25.568Z,73.60
2018-04-21T02:12:29.150Z,70.17
2018-04-21T02:14:32.826Z,75.50
2018-04-21T02:16:36.431Z,73.80
2018-04-21T02:18:40.042Z,65.43
2018-04-21T02:20:43.720Z,70.43
2018-04-21T02:22:47.364Z,71.63
2018-04-21T02:24:51.665Z,69.53
2018-04-21T02:26:56.151Z,69.60
2018-04-21T02:28:59.703Z,68.73
2018-04-21T02:31:03.300Z,67.10
2018-04-21T02:33:06.914Z,72.07
2018-04-21T02:35:10.506Z,68.93
2018-04-21T02:37:14.812Z,65.60
2018-04-21T02:39:18.406Z,68.47
2018-04-21T02:41:22.101Z,68.27
2018-04-21T02:43:25.699Z,66.83
2018-04-21T02:45:29.319Z,63.93
2018-04-21T02:47:33.075Z,67.23
2018-04-21T02:49:37.422Z,68.87
2018-04-21T02:51:40.986Z,66.17
2018-04-21T02:53:45.398Z,66.73
2018-04-21T02:55:49.740Z,62.03
2018-04-21T02:57:53.317Z,61.07
2018-04-21T02:59:56.880Z,62.87
2018-04-21T03:02:01.236Z,63.40
2018-04-21T03:04:05.217Z,59.27
2018-04-21T03:06:09.587Z,62.73
2018-04-21T03:08:13.121Z,59.60
2018-04-21T03:10:16.711Z,58.13
2018-04-21T03:12:21.065Z,63.10
2018-04-21T03:14:24.647Z,62.47
2018-04-21T03:16:28.372Z,64.23
2018-04-21T03:18:32.736Z,57.03
2018-04-21T03:20:36.287Z,55.93
2018-04-21T03:22:39.888Z,57.00
2018-04-21T03:24:43.459Z,51.10
2018-04-21T03:26:47.073Z,59.80
2018-04-21T03:28:50.674Z,55.30
2018-04-21T03:30:54.268Z,49.60
2018-04-21T03:32:57.863Z,52.83
2018-04-21T03:35:01.936Z,55.40
2018-04-21T03:37:06.273Z,52.30
2018-04-21T03:39:09.783Z,50.90
2018-04-21T03:41:13.369Z,48.80
2018-04-21T03:43:17.128Z,53.43
2018-04-21T03:45:21.499Z,56.27
2018-04-21T03:47:25.099Z,58.00
2018-04-21T03:49:28.729Z,56.37
2018-04-21T03:51:32.303Z,53.93
2018-04-21T03:53:35.871Z,52.83
2018-04-21T03:55:39.495Z,60.50
2018-04-21T03:57:43.106Z,62.67
2018-04-21T03:59:47.614Z,57.47
2018-04-21T04:01:51.243Z,54.87
2018-04-21T04:03:54.859Z,53.67
2018-04-21T04:05:59.206Z,54.37
2018-04-21T04:08:02.775Z,51.17
2018-04-21T04:10:06.494Z,51.40
2018-04-21T04:12:10.040Z,57.23
2018-04-21T04:17:02.166Z,52.63
2018-04-21T04:19:05.826Z,50.60
2018-04-21T04:24:02.226Z,46.50
2018-04-21T04:26:05.772Z,48.00
2018-04-21T04:28:14.686Z,43.03
2018-04-21T04:30:19.166Z,40.53
2018-04-21T04:32:22.751Z,32.93
2018-04-21T04:34:27.113Z,34.87
2018-04-21T04:36:31.117Z,39.70
2018-04-21T04:38:34.648Z,38.90
2018-04-21T04:40:38.191Z,35.70
2018-04-21T04:42:45.591Z,38.63
2018-04-21T04:44:50.802Z,39.73
2018-04-21T04:46:56.051Z,37.90
2018-04-21T04:48:59.709Z,39.97
2018-04-21T04:51:05.337Z,37.20
2018-04-21T04:53:09.023Z,33.83
2018-04-21T04:55:12.862Z,34.50
2018-04-21T04:57:16.511Z,35.03
2018-04-21T04:59:21.280Z,35.40
2018-04-21T05:01:25.572Z,30.80
2018-04-21T05:03:29.683Z,31.77
2018-04-21T05:05:33.440Z,31.70
2018-04-21T05:07:38.332Z,30.53
2018-04-21T05:09:42.835Z,36.00
2018-04-21T05:11:47.856Z,34.17
2018-04-21T05:13:51.912Z,37.37
2018-04-21T05:15:56.817Z,37.85
2018-04-21T05:18:00.348Z,34.83
2018-04-21T05:20:05.173Z,30.97
2018-04-21T05:22:10.518Z,34.37
2018-04-21T05:24:14.492Z,36.27
2018-04-21T05:26:18.633Z,33.40
2018-04-21T05:28:23.002Z,27.97
2018-04-21T05:30:29.637Z,31.67
2018-04-21T05:32:34.914Z,30.90
2018-04-21T05:34:39.309Z,30.67
2018-04-21T05:36:45.500Z,31.03
2018-04-21T05:38:49.089Z,28.77
2018-04-21T05:40:52.750Z,30.97
2018-04-21T05:42:56.895Z,29.60
2018-04-21T05:45:00.436Z,29.33
2018-04-21T05:47:04.427Z,31.00
2018-04-21T05:49:08.294Z,31.87
2018-04-21T05:51:11.844Z,29.87
2018-04-21T05:53:15.579Z,26.63
2018-04-21T05:55:19.482Z,28.63
2018-04-21T05:57:24.176Z,31.63
2018-04-21T05:59:29.453Z,28.70
2018-04-21T06:01:33.900Z,28.27
2018-04-21T06:03:38.325Z,23.20
2018-04-21T06:05:43.755Z,24.17
2018-04-21T06:07:47.510Z,25.07
2018-04-21T06:09:52.290Z,25.60
2018-04-21T06:11:56.204Z,27.50
2018-04-21T06:14:00.131Z,22.87
2018-04-21T06:16:04.227Z,22.93
2018-04-21T06:18:07.922Z,23.33
2018-04-21T06:20:11.607Z,20.77
2018-04-21T06:22:16.368Z,22.17
2018-04-21T06:24:21.015Z,24.17
2018-04-21T06:26:24.996Z,22.77
2018-04-21T06:28:28.654Z,24.27
2018-04-21T06:30:32.778Z,23.33
2018-04-21T06:32:36.323Z,19.97
2018-04-21T06:34:40.241Z,21.60
2018-04-21T06:36:44.276Z,21.37
2018-04-21T06:38:47.891Z,21.53
2018-04-21T06:40:51.698Z,19.77
2018-04-21T06:42:55.464Z,21.10
2018-04-21T06:44:59.716Z,19.20
2018-04-21T06:47:04.130Z,20.20
2018-04-21T06:49:08.304Z,20.20
2018-04-21T06:51:12.295Z,19.70
2018-04-21T06:53:17.465Z,18.90
2018-04-21T06:55:21.536Z,20.70
2018-04-21T06:57:25.212Z,19.10
2018-04-21T06:59:28.836Z,18.27
2018-04-21T07:01:34.304Z,17.03
2018-04-21T07:03:38.068Z,17.67
2018-04-21T07:05:41.669Z,18.17
2018-04-21T07:07:45.227Z,17.37
2018-04-21T07:09:48.838Z,17.63
2018-04-21T07:11:52.364Z,17.30
2018-04-21T07:13:56.090Z,17.37
2018-04-21T07:15:59.788Z,17.10
2018-04-21T07:18:03.330Z,15.87
2018-04-21T07:20:06.894Z,15.23
2018-04-21T07:22:10.770Z,15.03
2018-04-21T07:24:15.094Z,13.97
2018-04-21T07:26:18.641Z,14.27
2018-04-21T07:28:22.716Z,14.33
2018-04-21T07:30:27.113Z,12.73
2018-04-21T07:32:32.417Z,13.23
2018-04-21T07:34:36.802Z,13.23
2018-04-21T07:36:40.381Z,12.10
2018-04-21T07:38:43.929Z,12.73
2018-04-21T07:40:47.511Z,11.23
2018-04-21T07:42:51.761Z,11.03
2018-04-21T07:44:55.435Z,12.07
2018-04-21T07:46:59.764Z,10.40
2018-04-21T07:49:04.175Z,10.97
2018-04-21T07:51:08.505Z,10.60
2018-04-21T07:53:12.068Z,9.83
2018-04-21T07:55:15.776Z,10.03
2018-04-21T07:57:20.126Z,11.33
2018-04-21T07:59:23.694Z,10.60
2018-04-21T08:01:28.801Z,9.57
2018-04-21T08:03:33.242Z,9.40
2018-04-21T08:05:37.635Z,9.53
2018-04-21T08:07:41.307Z,9.97
2018-04-21T08:09:44.887Z,10.03
2018-04-21T08:11:48.456Z,8.93
2018-04-21T08:13:53.271Z,10.37
2018-04-21T08:15:57.571Z,8.73
2018-04-21T08:18:01.130Z,9.70
2018-04-21T08:20:05.030Z,8.50
2018-04-21T08:22:08.625Z,8.00
2018-04-21T08:24:12.201Z,7.93
2018-04-21T08:26:15.850Z,7.90
2018-04-21T08:28:19.384Z,8.20
2018-04-21T08:30:22.912Z,8.07
2018-04-21T08:32:27.265Z,7.03
2018-04-21T08:34:30.866Z,7.00
2018-04-21T08:36:35.257Z,7.67
2018-04-21T08:38:38.877Z,6.60
2018-04-21T08:40:42.429Z,6.50
2018-04-21T08:42:46.006Z,6.50
2018-04-21T08:44:49.580Z,5.53
2018-04-21T08:46:53.911Z,6.00
2018-04-21T08:48:57.436Z,5.60
2018-04-21T08:51:01.014Z,5.20
2018-04-21T08:53:04.631Z,5.17
2018-04-21T08:55:08.221Z,6.87
2018-04-21T08:57:11.759Z,4.87
2018-04-21T08:59:16.054Z,4.97
2018-04-21T09:01:20.229Z,4.43
2018-04-21T09:03:24.234Z,5.10
2018-04-21T09:05:28.648Z,4.77
2018-04-21T09:07:32.198Z,5.23
2018-04-21T09:09:35.735Z,5.23
2018-04-21T09:11:39.353Z,4.53
2018-04-21T09:13:42.927Z,4.60
2018-04-21T09:15:46.880Z,4.53
2018-04-21T09:17:50.476Z,3.90
2018-04-21T09:19:54.032Z,3.03
2018-04-21T09:21:57.697Z,3.10
2018-04-21T09:24:02.015Z,3.00
2018-04-21T09:26:05.777Z,3.33
2018-04-21T09:28:09.385Z,2.87
2018-04-21T09:30:12.986Z,3.17
2018-04-21T09:32:16.596Z,2.93
2018-04-21T09:34:20.195Z,3.00
2018-04-21T09:36:23.749Z,3.10
2018-04-21T09:38:27.291Z,3.40
2018-04-21T09:40:31.628Z,2.83
2018-04-21T09:42:36.331Z,2.63
2018-04-21T09:44:40.642Z,2.77
2018-04-21T09:46:45.037Z,2.90
2018-04-21T09:48:48.588Z,3.33
2018-04-21T09:50:52.136Z,2.70
2018-04-21T09:52:55.714Z,2.77
2018-04-21T09:54:59.264Z,2.57
2018-04-21T09:57:02.803Z,2.30
2018-04-21T09:59:08.109Z,3.50
2018-04-21T10:01:17.703Z,2.30
2018-04-21T10:03:21.275Z,2.40
2018-04-21T10:05:24.901Z,2.63
2018-04-21T10:07:29.211Z,2.93
2018-04-21T10:09:33.618Z,2.67
2018-04-21T10:11:37.223Z,2.70
2018-04-21T10:13:42.476Z,2.50
2018-04-21T10:15:46.991Z,2.80
2018-04-21T10:17:51.304Z,2.33
2018-04-21T10:19:56.623Z,2.43
2018-04-21T10:22:00.995Z,2.40
2018-04-21T10:24:04.544Z,1.97
2018-04-21T10:26:08.851Z,2.83
2018-04-21T10:28:12.453Z,2.60
2018-04-21T10:30:15.955Z,2.47
2018-04-21T10:32:19.502Z,2.30
2018-04-21T10:34:24.379Z,2.73
2018-04-21T10:36:28.723Z,2.37
2018-04-21T10:38:32.636Z,2.20
2018-04-21T10:40:36.209Z,2.20
2018-04-21T10:42:39.815Z,2.10
2018-04-21T10:44:43.383Z,2.43
2018-04-21T10:46:48.663Z,2.00
2018-04-21T10:48:52.732Z,2.00
2018-04-21T10:50:56.390Z,1.93
2018-04-21T10:53:01.282Z,1.77
2018-04-21T10:55:05.160Z,2.27
2018-04-21T10:57:09.086Z,2.07
2018-04-21T10:59:12.672Z,2.30
2018-04-21T11:01:16.249Z,1.73
2018-04-21T11:03:20.716Z,2.20
2018-04-21T11:05:24.758Z,2.07
2018-04-21T11:07:28.300Z,2.50
2018-04-21T11:09:31.922Z,2.37
2018-04-21T11:11:35.508Z,2.27
2018-04-21T11:13:39.082Z,2.73
2018-04-21T11:15:42.673Z,2.20
2018-04-21T11:17:46.953Z,2.83
2018-04-21T11:19:50.503Z,2.10
2018-04-21T11:21:54.042Z,1.90
2018-04-21T11:23:58.211Z,2.20
2018-04-21T11:26:01.856Z,2.37
2018-04-21T11:28:05.572Z,2.77
2018-04-21T11:30:09.910Z,2.53
2018-04-21T11:32:13.590Z,2.40
2018-04-21T11:34:17.894Z,1.90
2018-04-21T11:36:21.447Z,1.73
2018-04-21T11:38:25.164Z,1.90
2018-04-21T11:40:28.677Z,2.13
2018-04-21T11:42:33.012Z,2.20
2018-04-21T11:44:36.735Z,1.80
2018-04-21T11:46:40.268Z,1.80
2018-04-21T11:48:43.811Z,1.97
2018-04-21T11:50:48.646Z,2.00
2018-04-21T11:52:52.439Z,2.37
2018-04-21T11:54:56.056Z,2.23
2018-04-21T11:56:59.715Z,2.60
2018-04-21T11:59:04.192Z,1.63
2018-04-21T12:01:07.734Z,1.70
2018-04-21T12:03:12.039Z,2.13
2018-04-21T12:05:15.767Z,1.77
2018-04-21T12:07:19.300Z,1.67
2018-04-21T12:09:22.878Z,2.10
2018-04-21T12:11:26.501Z,2.07
2018-04-21T12:13:30.284Z,2.03
2018-04-21T12:15:35.064Z,1.83
2018-04-21T12:17:39.365Z,2.00
2018-04-21T12:19:43.677Z,1.80
2018-04-21T12:21:47.284Z,1.83
2018-04-21T12:23:51.675Z,1.30
2018-04-21T12:25:55.268Z,1.60
2018-04-21T12:27:59.726Z,1.80
2018-04-21T12:30:03.335Z,1.57
2018-04-21T12:32:06.912Z,1.37
2018-04-21T12:34:10.519Z,1.80
2018-04-21T12:36:14.116Z,1.43
2018-04-21T12:38:18.563Z,1.60
2018-04-21T12:40:22.109Z,1.77
2018-04-21T12:42:25.725Z,1.60
2018-04-21T12:44:29.286Z,1.70
2018-04-21T12:46:32.802Z,1.37
2018-04-21T12:48:37.198Z,1.80
2018-04-21T12:50:40.766Z,1.40
2018-04-21T12:52:44.352Z,2.07
2018-04-21T12:54:47.929Z,1.70
2018-04-21T12:56:51.493Z,1.67
2018-04-21T12:58:55.805Z,1.53
2018-04-21T13:01:00.138Z,1.70
2018-04-21T13:03:03.742Z,1.37
2018-04-21T13:05:07.313Z,1.80
2018-04-21T13:07:11.610Z,1.50
2018-04-21T13:09:15.945Z,1.53
2018-04-21T13:11:20.352Z,1.43
2018-04-21T13:13:23.936Z,1.80
2018-04-21T13:15:27.563Z,1.60
2018-04-21T13:17:31.095Z,1.57
2018-04-21T13:19:34.663Z,1.20
2018-04-21T13:21:38.243Z,1.43
2018-04-21T13:23:41.867Z,1.73
2018-04-21T13:25:45.398Z,1.43
2018-04-21T13:27:49.005Z,1.70
2018-04-21T13:29:52.620Z,1.50
2018-04-21T13:31:56.951Z,1.80
2018-04-21T13:34:01.305Z,1.80
2018-04-21T13:36:04.876Z,1.40
2018-04-21T13:38:08.473Z,1.63
2018-04-21T13:40:12.059Z,1.90
2018-04-21T13:42:16.412Z,1.50
2018-04-21T13:44:20.018Z,1.30
2018-04-21T13:46:23.605Z,1.60
2018-04-21T13:48:27.179Z,1.70
2018-04-21T13:50:31.179Z,1.57
2018-04-21T13:52:34.694Z,1.50
2018-04-21T13:54:38.217Z,1.47
2018-04-21T13:56:41.841Z,1.30
2018-04-21T13:58:45.366Z,1.43
2018-04-21T14:00:48.978Z,1.30
2018-04-21T14:02:52.591Z,1.20
2018-04-21T14:04:56.886Z,1.50
2018-04-21T14:07:00.459Z,1.63
2018-04-21T14:09:04.506Z,1.67
2018-04-21T14:11:08.093Z,1.10
2018-04-21T14:13:11.627Z,1.60
2018-04-21T14:15:15.256Z,1.30
2018-04-21T14:17:18.827Z,1.70
2018-04-21T14:19:22.425Z,1.30
2018-04-21T14:21:26.770Z,1.47
2018-04-21T14:23:30.327Z,1.53
2018-04-21T14:25:34.764Z,1.60
2018-04-21T14:27:39.103Z,1.40
2018-04-21T14:29:42.645Z,1.50
2018-04-21T14:31:46.268Z,1.23
2018-04-21T14:33:50.590Z,1.40
2018-04-21T14:35:54.887Z,1.50
2018-04-21T14:37:59.263Z,1.57
2018-04-21T14:40:02.809Z,1.73
2018-04-21T14:42:06.446Z,2.40
2018-04-21T14:44:10.067Z,2.10
2018-04-21T14:46:13.673Z,1.87
2018-04-21T14:48:17.219Z,1.20
2018-04-21T14:50:20.829Z,1.60
2018-04-21T14:52:24.476Z,1.53
2018-04-21T14:54:28.077Z,1.83
2018-04-21T14:56:32.396Z,1.47
2018-04-21T14:58:36.801Z,1.50
2018-04-21T15:00:40.560Z,1.60
2018-04-21T15:02:44.215Z,1.63
2018-04-21T15:04:48.519Z,1.70
2018-04-21T15:06:52.076Z,2.00
2018-04-21T15:08:55.698Z,1.70
2018-04-21T15:10:59.241Z,1.40
2018-04-21T15:13:02.753Z,1.77
2018-04-21T15:15:06.414Z,1.70
2018-04-21T15:17:10.017Z,1.70
2018-04-21T15:19:14.388Z,2.10
2018-04-21T15:21:17.975Z,2.70
2018-04-21T15:23:21.544Z,1.43
2018-04-21T15:25:25.131Z,1.67
2018-04-21T15:27:28.708Z,1.60
2018-04-21T15:29:33.036Z,1.87
2018-04-21T15:31:36.547Z,2.10
2018-04-21T15:33:40.097Z,1.60
2018-04-21T15:35:43.699Z,1.80
2018-04-21T15:37:48.028Z,1.80
2018-04-21T15:39:52.357Z,1.50
2018-04-21T15:41:55.849Z,1.67
2018-04-21T15:43:59.460Z,1.60
2018-04-21T15:46:03.555Z,1.60
2018-04-21T15:48:07.884Z,1.50
2018-04-21T15:50:11.450Z,1.73
2018-04-21T15:52:15.066Z,1.63
2018-04-21T15:54:18.601Z,2.00
2018-04-21T15:56:22.230Z,1.80
2018-04-21T15:58:26.591Z,1.47
2018-04-21T16:00:30.216Z,1.70
2018-04-21T16:02:33.732Z,1.77
2018-04-21T16:04:38.077Z,1.77
2018-04-21T16:06:42.078Z,1.90
2018-04-21T16:08:45.651Z,1.97
2018-04-21T16:10:49.936Z,2.07
2018-04-21T16:12:53.505Z,1.60
2018-04-21T16:14:57.088Z,1.60
2018-04-21T16:17:00.715Z,1.63
2018-04-21T16:19:04.340Z,2.10
2018-04-21T16:21:07.902Z,1.70
2018-04-21T16:23:11.414Z,1.60
2018-04-21T16:25:15.416Z,1.67
2018-04-21T16:27:19.055Z,1.90
2018-04-21T16:29:23.373Z,1.60
2018-04-21T16:31:27.016Z,1.80
2018-04-21T16:33:30.700Z,1.83
2018-04-21T16:35:34.604Z,1.70
2018-04-21T16:37:38.483Z,2.47
2018-04-21T16:39:42.077Z,1.53
2018-04-21T16:41:46.397Z,1.73
2018-04-21T16:43:49.909Z,2.03
2018-04-21T16:45:53.646Z,1.80
2018-04-21T16:47:57.262Z,1.73
2018-04-21T16:50:01.607Z,1.90
2018-04-21T16:52:05.228Z,1.80
2018-04-21T16:54:09.545Z,1.80
2018-04-21T16:56:13.147Z,1.90
2018-04-21T16:58:16.687Z,1.63
2018-04-21T17:00:21.005Z,1.73
2018-04-21T17:02:24.603Z,1.90
2018-04-21T17:04:28.940Z,1.80
2018-04-21T17:06:32.493Z,2.00
2018-04-21T17:08:37.349Z,2.07
2018-04-21T17:10:40.950Z,2.33
2018-04-21T17:12:44.500Z,2.20
2018-04-21T17:14:48.139Z,2.13
2018-04-21T17:16:52.458Z,1.97
2018-04-21T17:18:56.059Z,1.70
2018-04-21T17:20:59.695Z,1.80
2018-04-21T17:23:03.300Z,1.90
2018-04-21T17:25:06.870Z,2.17
2018-04-21T17:27:10.442Z,2.07
2018-04-21T17:29:14.182Z,2.10
2018-04-21T17:31:17.819Z,2.00
2018-04-21T17:33:21.399Z,1.80
2018-04-21T17:35:25.018Z,2.20
2018-04-21T17:37:28.604Z,1.70
2018-04-21T17:39:32.944Z,2.07
2018-04-21T17:41:36.533Z,2.63
2018-04-21T17:43:40.896Z,2.00
2018-04-21T17:45:44.463Z,2.10
2018-04-21T17:47:48.756Z,1.93
2018-04-21T17:49:52.364Z,2.00
2018-04-21T17:51:55.938Z,2.00
2018-04-21T17:54:00.307Z,1.73
2018-04-21T17:56:04.234Z,1.83
2018-04-21T17:58:08.540Z,2.00
2018-04-21T18:00:12.143Z,1.97
2018-04-21T18:02:15.704Z,1.90
2018-04-21T18:04:19.225Z,2.30
2018-04-21T18:06:22.828Z,1.80
2018-04-21T18:08:27.159Z,1.90
2018-04-21T18:10:30.768Z,1.83
2018-04-21T18:12:34.363Z,1.50
2018-04-21T18:14:38.739Z,1.67
2018-04-21T18:16:42.335Z,2.03
2018-04-21T18:18:45.911Z,2.07
2018-04-21T18:20:49.548Z,1.90
2018-04-21T18:22:53.097Z,2.60
2018-04-21T18:24:56.788Z,1.80
2018-04-21T18:27:01.093Z,2.23
2018-04-21T18:29:04.700Z,2.13
2018-04-21T18:31:08.295Z,1.70
2018-04-21T18:33:11.831Z,1.53
2018-04-21T18:35:15.885Z,2.40
2018-04-21T18:37:19.519Z,1.60
2018-04-21T18:39:23.068Z,1.53
2018-04-21T18:41:27.451Z,2.73
2018-04-21T18:43:31.050Z,2.20
2018-04-21T18:45:34.651Z,2.20
2018-04-21T18:47:38.206Z,2.00
2018-04-21T18:49:41.754Z,1.90
2018-04-21T18:51:45.383Z,2.00
2018-04-21T18:53:49.019Z,1.90
2018-04-21T18:55:52.573Z,2.00
2018-04-21T18:57:56.207Z,2.07
2018-04-21T18:59:59.796Z,2.13
2018-04-21T19:02:04.146Z,2.20
2018-04-21T19:04:07.688Z,2.57
2018-04-21T19:06:11.239Z,2.00
2018-04-21T19:08:14.866Z,1.93
2018-04-21T19:10:19.181Z,2.40
2018-04-21T19:12:22.696Z,1.67
2018-04-21T19:14:26.989Z,2.40
2018-04-21T19:16:30.522Z,1.97
2018-04-21T19:18:34.545Z,2.00
2018-04-21T19:20:38.553Z,2.00
2018-04-21T19:22:42.543Z,1.77
2018-04-21T19:24:46.964Z,1.93
2018-04-21T19:26:50.956Z,1.90
2018-04-21T19:28:55.072Z,1.77
2018-04-21T19:30:58.752Z,2.20
2018-04-21T19:33:03.102Z,2.23
2018-04-21T19:35:06.815Z,2.00
2018-04-21T19:37:10.938Z,1.90
2018-04-21T19:39:14.972Z,1.70
2018-04-21T19:41:18.669Z,1.90
2018-04-21T19:43:22.753Z,2.17
2018-04-21T19:45:26.294Z,2.17
2018-04-21T19:47:29.815Z,3.33
2018-04-21T19:49:33.362Z,2.00
2018-04-21T19:51:37.612Z,4.23
2018-04-21T19:53:41.194Z,1.90
2018-04-21T19:55:44.742Z,1.97
2018-04-21T19:57:49.196Z,1.53
2018-04-21T19:59:53.533Z,2.37
2018-04-21T20:01:57.042Z,1.87
2018-04-21T20:04:00.756Z,1.83
2018-04-21T20:06:04.328Z,3.43
2018-04-21T20:08:08.275Z,2.53
2018-04-21T20:10:11.798Z,1.80
2018-04-21T20:12:16.128Z,1.77
2018-04-21T20:14:19.736Z,2.97
2018-04-21T20:16:23.237Z,1.97
2018-04-21T20:18:26.737Z,1.73
2018-04-21T20:20:30.320Z,1.67
2018-04-21T20:22:33.815Z,2.47
2018-04-21T20:24:37.358Z,2.00
2018-04-21T20:26:40.872Z,1.63
2018-04-21T20:28:44.380Z,2.03
2018-04-21T20:30:49.099Z,2.03
2018-04-21T20:32:53.385Z,2.40
2018-04-21T20:34:56.917Z,1.77
2018-04-21T20:37:01.258Z,1.60
2018-04-21T20:39:04.819Z,1.80
2018-04-21T20:41:09.164Z,1.93
2018-04-21T20:43:12.670Z,1.90
2018-04-21T20:45:16.273Z,1.93
2018-04-21T20:47:19.867Z,1.43
2018-04-21T20:49:23.409Z,1.70
2018-04-21T20:51:26.912Z,1.80
2018-04-21T20:53:31.254Z,1.93
2018-04-21T20:55:34.827Z,1.80
2018-04-21T20:57:38.360Z,2.30
2018-04-21T20:59:42.000Z,1.97
2018-04-21T21:01:45.513Z,2.03
2018-04-21T21:03:49.972Z,1.60
2018-04-21T21:05:53.580Z,1.73
2018-04-21T21:07:57.097Z,1.80
2018-04-21T21:10:00.650Z,1.80
2018-04-21T21:12:04.233Z,1.67
2018-04-21T21:14:07.791Z,1.80
2018-04-21T21:16:11.401Z,1.80
2018-04-21T21:18:15.707Z,2.00
2018-04-21T21:20:19.247Z,2.07
2018-04-21T21:22:22.736Z,1.60
2018-04-21T21:24:26.270Z,2.00
2018-04-21T21:26:29.827Z,2.03
2018-04-21T21:28:33.336Z,1.60
2018-04-21T21:30:36.872Z,2.17
2018-04-21T21:32:40.395Z,1.73
2018-04-21T21:34:44.007Z,1.60
2018-04-21T21:36:47.613Z,1.60
2018-04-21T21:38:51.178Z,1.70
2018-04-21T21:40:54.767Z,1.40
2018-04-21T21:42:58.314Z,1.70
2018-04-21T21:45:01.855Z,1.87
2018-04-21T21:47:06.140Z,1.93
2018-04-21T21:49:09.758Z,1.73
2018-04-21T21:51:13.249Z,1.70
2018-04-21T21:53:17.524Z,2.13
2018-04-21T21:55:21.111Z,1.53
2018-04-21T21:57:24.658Z,1.97
2018-04-21T21:59:28.917Z,1.40
2018-04-21T22:01:36.779Z,1.60
2018-04-21T22:03:40.352Z,1.43
2018-04-21T22:05:43.962Z,2.27
2018-04-21T22:07:53.366Z,1.80
2018-04-21T22:09:56.872Z,1.50
2018-04-21T22:12:00.756Z,1.50
2018-04-21T22:14:04.303Z,1.73
2018-04-21T22:16:07.825Z,1.90
2018-04-21T22:18:11.375Z,1.70
2018-04-21T22:20:14.907Z,1.90
2018-04-21T22:22:18.511Z,1.77
2018-04-21T22:24:22.015Z,1.80
2018-04-21T22:26:25.547Z,1.50
2018-04-21T22:28:29.196Z,1.83
2018-04-21T22:30:32.739Z,1.63
2018-04-21T22:32:36.277Z,1.50
2018-04-21T22:34:39.827Z,2.00
2018-04-21T22:36:43.455Z,2.60
2018-04-21T22:38:47.718Z,2.07
2018-04-21T22:40:51.279Z,1.90
2018-04-21T22:42:54.823Z,2.10
2018-04-21T22:44:59.147Z,1.83
2018-04-21T22:47:02.749Z,1.70
2018-04-21T22:49:06.247Z,2.10
2018-04-21T22:51:10.600Z,2.17
2018-04-21T22:53:14.269Z,2.30
2018-04-21T22:55:18.539Z,1.50
2018-04-21T22:57:22.042Z,1.90
2018-04-21T22:59:25.590Z,1.63
2018-04-21T23:01:29.164Z,2.10
2018-04-21T23:03:32.706Z,1.97
2018-04-21T23:05:37.143Z,1.70
2018-04-21T23:07:41.452Z,2.13
2018-04-21T23:09:45.021Z,1.60
2018-04-21T23:11:48.700Z,1.87
2018-04-21T23:13:52.381Z,2.20
2018-04-21T23:15:55.956Z,1.87
2018-04-21T23:17:59.566Z,1.73
2018-04-21T23:20:03.218Z,1.70
2018-04-21T23:22:06.850Z,1.37
2018-04-21T23:24:10.509Z,1.90
2018-04-21T23:26:14.095Z,1.97
2018-04-21T23:28:17.688Z,1.40
2018-04-21T23:30:21.318Z,1.90
2018-04-21T23:32:24.872Z,2.10
2018-04-21T23:34:28.467Z,1.90
2018-04-21T23:36:32.024Z,1.80
2018-04-21T23:38:36.354Z,1.70
2018-04-21T23:40:40.260Z,2.00
2018-04-21T23:42:43.869Z,2.10
2018-04-21T23:44:47.449Z,2.27
2018-04-21T23:46:51.143Z,2.00
2018-04-21T23:48:54.713Z,2.20
2018-04-21T23:50:58.227Z,2.10
2018-04-21T23:53:01.863Z,2.37
2018-04-21T23:55:05.419Z,2.10
2018-04-21T23:57:09.364Z,1.93
2018-04-21T23:59:12.963Z,1.83
